Time;durP1;ratioP1;P1;durP2;ratioP2;P2;SDS_P1;SDS_P2;PMS_P1;PMS_P2;Temp;Humidity;BMP_temperature;BMP_pressure;BME280_temperature;BME280_humidity;BME280_pressure;Samples;Min_cycle;Max_cycle;Signal;HPM_P1;HPM_P2
2023/04/19 00:00:07;;;;;;;7.25;6.10;;;23.00;77.70;;;;;;6257512;28;88983;-70
2023/04/19 00:03:10;;;;;;;6.82;6.13;;;22.90;77.70;;;;;;6257498;28;90089;-71
2023/04/19 00:06:14;;;;;;;6.72;6.03;;;23.00;77.80;;;;;;6256825;28;89076;-71
2023/04/19 00:09:16;;;;;;;6.97;5.93;;;22.90;77.20;;;;;;6256553;28;89271;-70
2023/04/19 00:12:18;;;;;;;6.40;5.80;;;23.00;76.70;;;;;;6257878;28;89092;-71
2023/04/19 00:15:19;;;;;;;6.50;5.90;;;22.90;76.50;;;;;;6251811;28;89111;-70
2023/04/19 00:18:22;;;;;;;6.57;5.97;;;22.90;76.90;;;;;;6249467;28;90164;-71
2023/04/19 00:21:26;;;;;;;6.55;5.95;;;22.90;77.10;;;;;;6254603;28;89255;-71
2023/04/19 00:24:29;;;;;;;6.15;5.60;;;22.90;77.10;;;;;;6254928;28;88500;-70
2023/04/19 00:27:31;;;;;;;7.10;6.40;;;22.90;77.20;;;;;;6251043;28;89111;-71
2023/04/19 00:30:33;;;;;;;7.05;6.40;;;22.90;77.10;;;;;;6255386;28;88225;-70
2023/04/19 00:33:35;;;;;;;6.90;6.30;;;22.90;77.10;;;;;;6257210;28;90535;-71
2023/04/19 00:36:38;;;;;;;6.93;6.22;;;22.90;77.10;;;;;;6258459;28;89400;-70
2023/04/19 00:39:40;;;;;;;6.95;6.30;;;22.90;77.20;;;;;;6257728;28;89099;-70
2023/04/19 00:42:42;;;;;;;7.30;6.60;;;22.90;77.20;;;;;;6255652;28;89071;-70
2023/04/19 00:45:45;;;;;;;7.35;6.65;;;22.90;77.20;;;;;;6256589;27;89308;-70
2023/04/19 00:48:47;;;;;;;7.57;6.88;;;22.80;77.10;;;;;;6256742;28;89150;-70
2023/04/19 00:51:51;;;;;;;7.40;6.70;;;22.80;77.20;;;;;;6256581;27;87927;-70
2023/04/19 00:54:54;;;;;;;7.18;6.47;;;22.80;77.20;;;;;;6257567;28;88332;-70
2023/04/19 00:57:57;;;;;;;7.50;6.80;;;22.80;77.20;;;;;;6255770;28;87971;-70
2023/04/19 01:00:59;;;;;;;7.20;6.50;;;22.80;77.20;;;;;;6246681;28;89144;-70
2023/04/19 01:04:02;;;;;;;6.97;6.28;;;22.80;77.20;;;;;;6256471;28;89989;-70
2023/04/19 01:07:05;;;;;;;6.93;6.32;;;22.80;77.20;;;;;;6257430;28;89048;-70
2023/04/19 01:10:08;;;;;;;7.68;6.88;;;22.80;77.30;;;;;;6256086;28;89063;-70
2023/04/19 01:13:10;;;;;;;7.88;7.18;;;22.80;77.30;;;;;;6251418;28;87938;-70
2023/04/19 01:16:12;;;;;;;7.55;6.85;;;22.80;77.20;;;;;;6250303;28;89164;-70
2023/04/19 01:19:15;;;;;;;7.47;6.78;;;22.80;77.30;;;;;;6255302;28;89064;-70
2023/04/19 01:22:21;;;;;;;7.45;6.75;;;22.80;77.20;;;;;;6257038;28;89373;-70
2023/04/19 01:25:23;;;;;;;8.57;7.72;;;22.80;77.20;;;;;;6253060;28;88493;-71
2023/04/19 01:28:25;;;;;;;7.55;6.85;;;22.80;77.20;;;;;;6257401;28;89070;-70
2023/04/19 01:31:27;;;;;;;8.20;7.50;;;22.80;77.20;;;;;;6255024;28;89104;-70
2023/04/19 01:34:29;;;;;;;7.85;7.15;;;22.80;77.20;;;;;;6243498;28;90056;-71
2023/04/19 01:37:35;;;;;;;8.25;7.45;;;22.80;77.20;;;;;;6244811;28;87961;-71
2023/04/19 01:40:37;;;;;;;8.15;7.35;;;22.70;77.10;;;;;;6252584;28;88949;-71
2023/04/19 01:43:39;;;;;;;8.23;7.43;;;22.80;77.20;;;;;;6255082;28;89740;-71
2023/04/19 01:46:41;;;;;;;8.25;7.45;;;22.80;77.20;;;;;;6256353;28;89110;-70
2023/04/19 01:49:43;;;;;;;8.50;7.70;;;22.70;77.20;;;;;;6243169;28;89102;-71
2023/04/19 01:52:46;;;;;;;8.32;7.53;;;22.70;77.10;;;;;;6255589;28;89128;-71
2023/04/19 01:55:48;;;;;;;8.40;7.60;;;22.70;77.20;;;;;;6256545;28;88415;-70
2023/04/19 01:58:50;;;;;;;9.07;8.18;;;22.70;77.20;;;;;;6251483;27;88805;-71
2023/04/19 02:01:53;;;;;;;8.77;7.97;;;22.70;77.20;;;;;;6251730;28;88805;-70
2023/04/19 02:04:55;;;;;;;9.05;8.15;;;22.70;77.20;;;;;;6252686;28;90014;-71
2023/04/19 02:08:00;;;;;;;8.63;7.78;;;22.70;77.20;;;;;;6242784;28;88729;-71
2023/04/19 02:11:07;;;;;;;9.02;8.13;;;22.70;77.10;;;;;;6243893;28;89132;-70
2023/04/19 02:14:09;;;;;;;9.60;8.73;;;22.70;77.20;;;;;;6241126;28;89372;-71
2023/04/19 02:17:11;;;;;;;8.90;8.10;;;22.70;77.20;;;;;;6248964;27;89031;-71
2023/04/19 02:20:13;;;;;;;9.48;8.57;;;22.70;77.20;;;;;;6241014;28;89093;-71
2023/04/19 02:23:16;;;;;;;9.23;8.32;;;22.70;77.10;;;;;;6252727;28;89097;-71
2023/04/19 02:26:19;;;;;;;10.23;9.25;;;22.70;77.10;;;;;;6255336;28;88538;-71
2023/04/19 02:29:21;;;;;;;9.55;8.65;;;22.70;77.10;;;;;;6251518;28;88941;-70
2023/04/19 02:32:23;;;;;;;10.00;9.10;;;22.70;77.10;;;;;;6247511;28;89169;-71
2023/04/19 02:35:25;;;;;;;9.90;9.00;;;22.70;77.10;;;;;;6254375;28;90383;-72
2023/04/19 02:38:28;;;;;;;10.00;9.00;;;22.60;77.10;;;;;;6254521;28;89111;-71
2023/04/19 02:41:30;;;;;;;10.50;9.50;;;22.70;77.20;;;;;;6243293;28;89177;-71
2023/04/19 02:44:32;;;;;;;10.18;9.20;;;22.60;77.10;;;;;;6247108;28;89124;-71
2023/04/19 02:47:34;;;;;;;10.65;9.65;;;22.60;77.00;;;;;;6239075;28;89081;-71
2023/04/19 02:50:38;;;;;;;10.57;9.57;;;22.60;77.10;;;;;;6255016;28;89058;-71
2023/04/19 02:53:41;;;;;;;10.30;9.30;;;22.60;76.90;;;;;;6253821;28;88989;-71
2023/04/19 02:56:43;;;;;;;10.68;9.68;;;22.60;77.10;;;;;;6253803;28;88291;-71
2023/04/19 02:59:45;;;;;;;10.30;9.38;;;22.60;77.20;;;;;;6254626;28;89042;-71
2023/04/19 03:02:47;;;;;;;10.40;9.40;;;22.60;77.20;;;;;;6254717;28;88028;-71
2023/04/19 03:05:49;;;;;;;11.23;10.20;;;22.60;77.10;;;;;;6253267;28;90024;-71
2023/04/19 03:08:53;;;;;;;11.38;10.27;;;22.60;77.10;;;;;;6254291;27;87923;-71
2023/04/19 03:11:55;;;;;;;11.43;10.32;;;22.60;77.00;;;;;;6248067;28;89069;-71
2023/04/19 03:14:57;;;;;;;10.55;9.60;;;22.60;76.90;;;;;;6251463;28;89090;-70
2023/04/19 03:17:58;;;;;;;10.60;9.60;;;22.60;77.00;;;;;;6252341;28;89059;-70
2023/04/19 03:21:01;;;;;;;11.07;10.07;;;22.60;77.00;;;;;;6244776;28;89100;-71
2023/04/19 03:24:04;;;;;;;11.25;10.20;;;22.60;77.00;;;;;;6241194;28;89063;-70
2023/04/19 03:27:06;;;;;;;10.85;9.85;;;22.60;77.00;;;;;;6252061;28;88383;-71
2023/04/19 03:30:09;;;;;;;11.35;10.25;;;22.60;77.00;;;;;;6249347;28;89318;-70
2023/04/19 03:33:12;;;;;;;11.38;10.27;;;22.60;77.00;;;;;;6258025;28;88157;-70
2023/04/19 03:36:13;;;;;;;11.13;10.10;;;22.60;76.90;;;;;;6257562;28;90231;-70
2023/04/19 03:39:17;;;;;;;11.07;10.07;;;22.60;76.40;;;;;;6257131;28;89103;-70
2023/04/19 03:42:19;;;;;;;11.68;10.57;;;22.50;76.30;;;;;;6245673;28;89065;-70
2023/04/19 03:45:21;;;;;;;11.15;10.05;;;22.50;76.30;;;;;;6250400;28;89101;-70
2023/04/19 03:48:23;;;;;;;10.85;9.85;;;22.60;76.80;;;;;;6252716;28;89198;-70
2023/04/19 03:51:26;;;;;;;11.30;10.20;;;22.60;76.40;;;;;;6257224;28;89053;-71
2023/04/19 03:54:29;;;;;;;11.70;10.60;;;22.60;76.30;;;;;;6258119;28;89242;-70
2023/04/19 03:57:31;;;;;;;11.50;10.43;;;22.50;76.20;;;;;;6257299;28;88386;-70
2023/04/19 04:00:33;;;;;;;11.60;10.50;;;22.60;76.30;;;;;;6257311;28;88975;-70
2023/04/19 04:03:35;;;;;;;11.20;10.15;;;22.60;76.20;;;;;;6254878;28;89000;-70
2023/04/19 04:06:37;;;;;;;11.40;10.30;;;22.60;76.20;;;;;;6255353;28;90083;-71
2023/04/19 04:09:40;;;;;;;11.43;10.32;;;22.60;76.10;;;;;;6257167;28;89091;-71
2023/04/19 04:12:42;;;;;;;10.60;9.65;;;22.60;76.10;;;;;;6255190;28;89132;-70
2023/04/19 04:15:44;;;;;;;10.90;9.90;;;22.70;76.10;;;;;;6247538;28;89117;-70
2023/04/19 04:18:46;;;;;;;10.70;9.70;;;22.70;76.00;;;;;;6247952;28;89111;-70
2023/04/19 04:21:49;;;;;;;11.15;10.05;;;22.70;75.90;;;;;;6249811;27;89079;-71
2023/04/19 04:24:52;;;;;;;10.07;9.15;;;22.70;75.90;;;;;;6256591;28;89188;-70
2023/04/19 04:27:55;;;;;;;10.60;9.60;;;22.70;75.90;;;;;;6252664;28;88445;-71
2023/04/19 04:30:57;;;;;;;10.80;9.73;;;22.70;75.80;;;;;;6258160;28;89308;-70
2023/04/19 04:33:59;;;;;;;10.85;9.85;;;22.70;75.70;;;;;;6258028;28;88775;-71
2023/04/19 04:37:01;;;;;;;10.48;9.48;;;22.70;75.70;;;;;;6256509;28;90176;-71
2023/04/19 04:40:06;;;;;;;10.20;9.30;;;22.70;75.70;;;;;;6252685;28;89033;-71
2023/04/19 04:43:09;;;;;;;10.43;9.43;;;22.70;75.70;;;;;;6249635;28;89200;-70
2023/04/19 04:46:11;;;;;;;10.63;9.63;;;22.70;75.70;;;;;;6257710;28;88201;-71
2023/04/19 04:49:14;;;;;;;10.82;9.82;;;22.70;75.70;;;;;;6256506;28;89076;-71
2023/04/19 04:52:16;;;;;;;10.68;9.68;;;22.70;75.40;;;;;;6257932;28;89068;-71
2023/04/19 04:55:19;;;;;;;10.27;9.27;;;22.70;74.70;;;;;;6257520;27;89143;-71
2023/04/19 04:58:21;;;;;;;9.95;9.05;;;22.70;74.40;;;;;;6258309;27;88408;-71
2023/04/19 05:01:23;;;;;;;10.00;8.95;;;22.70;73.80;;;;;;6257805;27;89125;-68
2023/04/19 05:04:25;;;;;;;11.10;10.00;;;22.70;73.70;;;;;;6256450;27;89003;-70
2023/04/19 05:07:27;;;;;;;10.50;9.50;;;22.70;73.50;;;;;;6255316;27;90130;-68
2023/04/19 05:10:31;;;;;;;10.00;9.10;;;22.70;73.30;;;;;;6248218;27;89100;-69
2023/04/19 05:13:33;;;;;;;10.13;9.20;;;22.70;73.30;;;;;;6257105;27;89061;-68
2023/04/19 05:16:35;;;;;;;9.85;8.88;;;22.70;73.10;;;;;;6245094;27;89067;-69
2023/04/19 05:19:37;;;;;;;10.20;9.10;;;22.70;72.90;;;;;;6247653;27;88317;-69
2023/04/19 05:22:39;;;;;;;10.00;9.10;;;22.70;72.80;;;;;;6253123;27;89037;-69
2023/04/19 05:25:42;;;;;;;9.73;8.77;;;22.70;72.60;;;;;;6253494;28;89084;-69
2023/04/19 05:28:45;;;;;;;9.70;8.70;;;22.70;72.50;;;;;;6255351;28;89091;-69
2023/04/19 05:31:47;;;;;;;9.82;8.68;;;22.70;72.50;;;;;;6256200;28;88262;-68
2023/04/19 05:34:49;;;;;;;9.55;8.63;;;22.70;72.40;;;;;;6256981;28;89165;-69
2023/04/19 05:37:51;;;;;;;9.73;8.38;;;22.70;72.20;;;;;;6255796;28;90043;-68
2023/04/19 05:40:54;;;;;;;8.82;8.00;;;22.70;72.10;;;;;;6255673;28;88973;-69
2023/04/19 05:43:56;;;;;;;10.10;9.20;;;22.70;71.90;;;;;;6256315;28;89246;-69
2023/04/19 05:46:58;;;;;;;9.75;8.85;;;22.80;71.80;;;;;;6254885;28;89086;-69
2023/04/19 05:50:00;;;;;;;9.63;8.63;;;22.70;71.60;;;;;;6255927;28;89197;-69
2023/04/19 05:53:02;;;;;;;9.30;8.40;;;22.80;71.50;;;;;;6255401;28;89251;-69
2023/04/19 05:56:06;;;;;;;9.73;8.75;;;22.80;71.50;;;;;;6255850;28;88973;-69
2023/04/19 05:59:10;;;;;;;9.60;8.63;;;22.80;71.40;;;;;;6256558;28;87995;-69
2023/04/19 06:02:12;;;;;;;9.85;8.63;;;22.70;71.30;;;;;;6255346;28;88780;-69
2023/04/19 06:05:14;;;;;;;8.82;7.93;;;22.80;71.30;;;;;;6255525;28;89052;-69
2023/04/19 06:08:17;;;;;;;8.90;8.10;;;22.80;71.30;;;;;;6256906;28;90023;-69
2023/04/19 06:11:21;;;;;;;9.35;8.30;;;22.80;71.20;;;;;;6255748;28;89140;-69
2023/04/19 06:14:23;;;;;;;8.93;7.97;;;22.80;71.20;;;;;;6253206;28;88996;-69
2023/04/19 06:17:25;;;;;;;9.52;8.63;;;22.80;71.30;;;;;;6245505;28;89046;-69
2023/04/19 06:20:27;;;;;;;9.27;8.38;;;22.80;71.10;;;;;;6233617;28;89337;-70
2023/04/19 06:23:29;;;;;;;9.20;8.40;;;22.80;71.20;;;;;;6254933;28;90806;-69
2023/04/19 06:26:33;;;;;;;9.00;8.10;;;22.80;71.10;;;;;;6252572;28;89099;-70
2023/04/19 06:29:35;;;;;;;8.73;7.82;;;22.80;71.10;;;;;;6254826;28;87605;-69
2023/04/19 06:32:37;;;;;;;9.02;8.20;;;22.80;71.00;;;;;;6255748;28;89021;-70
2023/04/19 06:35:39;;;;;;;8.77;8.00;;;22.80;70.90;;;;;;6248679;28;89414;-69
2023/04/19 06:38:43;;;;;;;8.90;8.10;;;22.80;70.80;;;;;;6254475;28;90000;-69
2023/04/19 06:41:46;;;;;;;9.63;8.73;;;22.80;70.60;;;;;;6254936;28;89067;-69
2023/04/19 06:44:48;;;;;;;9.43;8.52;;;22.80;70.50;;;;;;6255260;28;89527;-69
2023/04/19 06:47:50;;;;;;;9.25;8.40;;;22.90;70.50;;;;;;6254862;28;88121;-69
2023/04/19 06:50:53;;;;;;;8.98;8.07;;;22.80;70.50;;;;;;6254935;28;89429;-69
2023/04/19 06:53:55;;;;;;;9.10;8.20;;;22.80;70.50;;;;;;6242043;28;89034;-69
2023/04/19 06:56:58;;;;;;;9.00;8.20;;;22.80;70.50;;;;;;6244171;28;89408;-69
2023/04/19 07:00:00;;;;;;;9.63;8.65;;;22.80;71.30;;;;;;6252555;28;88392;-69
2023/04/19 07:03:02;;;;;;;8.73;7.90;;;22.80;70.40;;;;;;6256100;28;87996;-70
2023/04/19 07:06:05;;;;;;;8.57;7.70;;;22.80;70.30;;;;;;6254463;28;87854;-70
2023/04/19 07:09:08;;;;;;;9.15;8.20;;;22.80;70.30;;;;;;6253530;28;89989;-69
2023/04/19 07:12:11;;;;;;;8.95;8.05;;;22.80;70.30;;;;;;6253481;28;89309;-69
2023/04/19 07:15:13;;;;;;;8.98;8.15;;;22.80;70.20;;;;;;6254585;28;89133;-69
2023/04/19 07:18:15;;;;;;;8.93;8.13;;;22.80;70.30;;;;;;6253478;28;89062;-69
2023/04/19 07:21:17;;;;;;;9.07;8.27;;;22.80;70.30;;;;;;6246324;28;89038;-70
2023/04/19 07:24:19;;;;;;;8.50;7.80;;;22.80;70.20;;;;;;6253121;28;89173;-69
2023/04/19 07:27:22;;;;;;;9.45;8.48;;;22.80;70.10;;;;;;6243626;28;87968;-69
2023/04/19 07:30:24;;;;;;;8.70;7.90;;;22.80;70.10;;;;;;6253217;28;88430;-69
2023/04/19 07:33:27;;;;;;;9.27;8.38;;;22.80;69.90;;;;;;6254794;28;89083;-69
2023/04/19 07:36:30;;;;;;;10.18;8.15;;;22.80;69.90;;;;;;6254213;28;89059;-69
2023/04/19 07:39:32;;;;;;;8.98;8.07;;;22.90;69.90;;;;;;6252120;28;90650;-69
2023/04/19 07:42:36;;;;;;;9.48;8.57;;;22.90;69.90;;;;;;6246147;28;89610;-69
2023/04/19 07:45:38;;;;;;;9.00;8.20;;;22.80;69.80;;;;;;6254205;28;89175;-69
2023/04/19 07:48:40;;;;;;;9.15;8.35;;;22.80;69.80;;;;;;6254729;28;88782;-69
2023/04/19 07:51:42;;;;;;;9.35;8.45;;;22.80;69.80;;;;;;6253953;28;89066;-69
2023/04/19 07:54:44;;;;;;;9.15;8.35;;;22.80;69.80;;;;;;6249609;27;89079;-69
2023/04/19 07:57:48;;;;;;;8.90;8.07;;;22.90;69.80;;;;;;6258284;28;89054;-69
2023/04/19 08:00:50;;;;;;;9.23;8.43;;;22.80;69.60;;;;;;6252363;28;88324;-69
2023/04/19 08:03:52;;;;;;;8.90;8.10;;;22.80;69.50;;;;;;6258802;28;88871;-69
2023/04/19 08:06:55;;;;;;;9.05;8.23;;;22.80;69.60;;;;;;6250768;28;89097;-69
2023/04/19 08:09:57;;;;;;;9.25;8.40;;;22.80;69.60;;;;;;6258069;28;89875;-69
2023/04/19 08:13:00;;;;;;;8.93;8.10;;;22.80;69.40;;;;;;6257775;28;89132;-70
2023/04/19 08:16:02;;;;;;;9.43;8.25;;;22.80;69.40;;;;;;6251160;28;88945;-69
2023/04/19 08:19:04;;;;;;;8.75;7.95;;;22.80;69.50;;;;;;6250221;28;89084;-70
2023/04/19 08:22:06;;;;;;;8.52;7.72;;;22.80;69.40;;;;;;6246698;27;89054;-69
2023/04/19 08:25:09;;;;;;;9.05;8.13;;;22.80;69.40;;;;;;6254964;28;89098;-69
2023/04/19 08:28:13;;;;;;;8.68;7.88;;;22.80;69.40;;;;;;6242096;28;88881;-69
2023/04/19 08:31:15;;;;;;;9.20;8.05;;;22.80;69.30;;;;;;6250187;28;88421;-69
2023/04/19 08:34:17;;;;;;;9.45;8.55;;;22.90;69.40;;;;;;6257178;28;89124;-69
2023/04/19 08:37:19;;;;;;;8.75;8.02;;;22.90;69.40;;;;;;6258695;28;89252;-68
2023/04/19 08:40:21;;;;;;;8.60;7.80;;;22.80;69.40;;;;;;6247265;28;90352;-68
2023/04/19 08:43:27;;;;;;;8.40;7.60;;;22.80;69.40;;;;;;6254424;28;89118;-68
2023/04/19 08:46:31;;;;;;;8.80;7.90;;;22.80;69.50;;;;;;6255531;28;89153;-68
2023/04/19 08:49:35;;;;;;;8.88;8.07;;;22.80;69.60;;;;;;6254589;28;89235;-68
2023/04/19 08:52:39;;;;;;;9.15;8.25;;;22.80;69.60;;;;;;6240311;28;89402;-69
2023/04/19 08:55:42;;;;;;;9.00;8.20;;;22.80;69.70;;;;;;6257848;28;89206;-69
2023/04/19 08:58:45;;;;;;;8.73;7.93;;;22.80;69.80;;;;;;6256795;28;89005;-68
2023/04/19 09:01:47;;;;;;;9.23;8.27;;;22.80;69.80;;;;;;6236338;28;88447;-68
2023/04/19 09:04:49;;;;;;;9.07;8.27;;;22.80;69.90;;;;;;6255898;28;87911;-69
2023/04/19 09:07:52;;;;;;;8.80;8.00;;;22.80;70.00;;;;;;6257152;27;88600;-68
2023/04/19 09:10:55;;;;;;;8.65;7.85;;;22.80;70.00;;;;;;6256417;28;91342;-68
2023/04/19 09:14:09;;;;;;;9.02;8.13;;;22.80;70.00;;;;;;6257158;28;89039;-68
2023/04/19 09:17:13;;;;;;;8.95;8.05;;;22.80;69.80;;;;;;6256487;28;89090;-68
2023/04/19 09:20:15;;;;;;;8.35;7.65;;;22.80;69.80;;;;;;6249135;28;88064;-69
2023/04/19 09:23:19;;;;;;;8.50;7.70;;;22.80;69.80;;;;;;6246381;28;89082;-68
2023/04/19 09:26:21;;;;;;;7.85;7.15;;;22.80;69.80;;;;;;6257762;28;89114;-69
2023/04/19 09:29:25;;;;;;;8.48;7.78;;;22.80;69.80;;;;;;6257670;28;88993;-68
2023/04/19 09:32:29;;;;;;;8.35;7.65;;;22.80;69.90;;;;;;6256771;28;88329;-69
2023/04/19 09:35:41;;;;;;;8.52;7.72;;;22.80;69.80;;;;;;6256485;28;89114;-69
2023/04/19 09:38:50;;;;;;;8.98;8.07;;;22.80;69.90;;;;;;6244088;28;89082;-69
2023/04/19 09:41:52;;;;;;;8.48;7.60;;;22.80;69.90;;;;;;6242728;28;89832;-68
2023/04/19 09:44:59;;;;;;;8.75;7.90;;;22.80;69.80;;;;;;6256265;28;89028;-69
2023/04/19 09:48:02;;;;;;;8.18;7.40;;;22.80;69.90;;;;;;6255757;28;88070;-69
2023/04/19 09:51:05;;;;;;;7.97;7.28;;;22.80;69.90;;;;;;6243537;28;89155;-69
2023/04/19 09:54:08;;;;;;;7.82;7.13;;;22.80;69.80;;;;;;6256203;28;89172;-68
2023/04/19 09:57:10;;;;;;;8.13;7.35;;;22.80;69.80;;;;;;6256379;28;89153;-69
2023/04/19 10:00:14;;;;;;;9.02;7.93;;;22.70;69.60;;;;;;6243900;28;89079;-68
2023/04/19 10:03:18;;;;;;;7.97;7.25;;;22.80;69.60;;;;;;6256315;28;88420;-69
2023/04/19 10:06:21;;;;;;;8.35;7.60;;;22.80;69.60;;;;;;6256019;28;89099;-68
2023/04/19 10:09:25;;;;;;;7.95;7.25;;;22.80;69.50;;;;;;6255214;28;89046;-68
2023/04/19 10:12:27;;;;;;;7.72;7.03;;;22.80;69.50;;;;;;6253972;28;90018;-69
2023/04/19 10:15:31;;;;;;;7.63;6.95;;;22.80;69.40;;;;;;6255144;28;89112;-68
2023/04/19 10:18:34;;;;;;;7.88;7.18;;;22.80;69.40;;;;;;6247642;28;88817;-68
2023/04/19 10:21:37;;;;;;;8.30;7.50;;;22.80;69.40;;;;;;6248343;28;89101;-68
2023/04/19 10:24:39;;;;;;;7.95;7.20;;;22.90;69.40;;;;;;6256796;28;89032;-67
2023/04/19 10:27:44;;;;;;;9.80;8.80;;;22.80;69.20;;;;;;6252265;28;89368;-68
2023/04/19 10:30:57;;;;;;;9.68;8.77;;;22.80;69.00;;;;;;6255263;28;89271;-68
2023/04/19 10:33:59;;;;;;;9.23;8.32;;;22.80;68.90;;;;;;6255639;28;88346;-68
2023/04/19 10:37:04;;;;;;;9.00;8.18;;;22.80;68.90;;;;;;6241176;28;89639;-68
2023/04/19 10:40:07;;;;;;;9.65;8.48;;;22.80;69.80;;;;;;6254397;28;87959;-68
2023/04/19 10:43:16;;;;;;;8.88;8.07;;;22.70;68.90;;;;;;6254535;28;90240;-67
2023/04/19 10:46:38;;;;;;;8.75;7.95;;;22.80;69.00;;;;;;6254070;28;89052;-68
2023/04/19 10:49:45;;;;;;;9.00;8.10;;;22.80;69.00;;;;;;6254704;28;89164;-68
2023/04/19 10:52:47;;;;;;;8.77;7.97;;;22.70;69.10;;;;;;6255126;27;88496;-67
2023/04/19 10:55:51;;;;;;;8.30;7.60;;;22.80;69.20;;;;;;6255102;28;89364;-69
2023/04/19 10:59:23;;;;;;;9.02;8.20;;;22.80;69.20;;;;;;6254233;28;89090;-68
2023/04/19 11:02:31;;;;;;;8.68;7.78;;;22.70;69.20;;;;;;6241903;28;89183;-69
2023/04/19 11:06:18;;;;;;;9.05;7.68;;;22.70;69.20;;;;;;6255082;28;88338;-69
2023/04/19 11:09:22;;;;;;;8.30;7.47;;;22.70;69.10;;;;;;6254288;28;89207;-70
2023/04/19 11:12:24;;;;;;;8.05;6.97;;;22.70;69.10;;;;;;6254510;28;89635;-70
2023/04/19 11:15:26;;;;;;;7.55;6.85;;;22.80;69.00;;;;;;6254738;28;90004;-69
2023/04/19 11:18:31;;;;;;;6.40;5.80;;;22.80;68.80;;;;;;6247672;28;89019;-70
2023/04/19 11:21:33;;;;;;;6.28;5.68;;;22.80;68.50;;;;;;6247450;28;89825;-70
2023/04/19 11:24:35;;;;;;;5.82;5.30;;;22.70;68.30;;;;;;6243590;28;89447;-69
2023/04/19 11:27:38;;;;;;;5.60;5.10;;;22.80;68.40;;;;;;6254257;28;89028;-70
2023/04/19 11:30:40;;;;;;;5.15;4.75;;;22.70;68.20;;;;;;6255046;28;87963;-69
2023/04/19 11:33:44;;;;;;;5.50;5.00;;;22.70;68.10;;;;;;6259345;27;88732;-70
2023/04/19 11:36:50;;;;;;;4.45;4.05;;;22.70;68.10;;;;;;6259927;28;88313;-69
2023/04/19 11:39:52;;;;;;;4.85;4.45;;;22.70;68.10;;;;;;6255276;28;89090;-69
2023/04/19 11:42:55;;;;;;;4.55;4.15;;;22.70;68.00;;;;;;6248948;28;89690;-69
2023/04/19 11:46:05;;;;;;;4.47;4.10;;;22.70;67.90;;;;;;6257253;28;90005;-70
2023/04/19 11:49:08;;;;;;;4.20;3.80;;;22.70;67.90;;;;;;6259327;28;88661;-70
2023/04/19 11:52:10;;;;;;;3.92;3.53;;;22.70;67.80;;;;;;6247601;28;89147;-69
2023/04/19 11:55:19;;;;;;;4.25;3.85;;;22.70;67.70;;;;;;6258970;28;89071;-70
2023/04/19 11:58:29;;;;;;;3.80;3.50;;;22.70;67.70;;;;;;6246315;28;89512;-70
2023/04/19 12:01:31;;;;;;;3.65;3.35;;;22.70;67.50;;;;;;6248391;28;88753;-69
2023/04/19 12:04:35;;;;;;;3.25;3.00;;;22.70;67.40;;;;;;6257432;28;89243;-69
2023/04/19 12:07:37;;;;;;;3.53;3.22;;;22.70;67.30;;;;;;6258855;28;88350;-69
2023/04/19 12:10:39;;;;;;;3.95;3.58;;;22.70;67.20;;;;;;6255549;28;89154;-69
2023/04/19 12:13:43;;;;;;;4.78;4.30;;;22.80;67.30;;;;;;6258826;28;88365;-69
2023/04/19 12:16:45;;;;;;;5.25;4.75;;;22.70;67.20;;;;;;6257087;28;90140;-69
2023/04/19 12:19:48;;;;;;;5.10;4.60;;;22.70;67.40;;;;;;6254421;28;89153;-69
2023/04/19 12:22:50;;;;;;;5.40;4.90;;;22.70;67.40;;;;;;6246333;28;89593;-69
2023/04/19 12:25:52;;;;;;;4.60;4.20;;;22.70;67.40;;;;;;6255059;28;89521;-69
2023/04/19 12:28:54;;;;;;;4.32;3.92;;;22.70;67.40;;;;;;6257998;28;89300;-69
2023/04/19 12:31:56;;;;;;;5.05;4.55;;;22.70;67.40;;;;;;6254628;28;89464;-69
2023/04/19 12:35:00;;;;;;;5.18;4.55;;;22.70;67.40;;;;;;6257284;28;89066;-69
2023/04/19 12:38:02;;;;;;;5.30;4.80;;;22.70;67.40;;;;;;6259268;28;88294;-69
2023/04/19 12:41:04;;;;;;;5.82;5.20;;;22.60;67.40;;;;;;6247107;27;89136;-69
2023/04/19 12:44:06;;;;;;;6.78;5.15;;;22.60;67.40;;;;;;6257392;28;89222;-69
2023/04/19 12:47:08;;;;;;;5.90;4.57;;;22.70;67.50;;;;;;6256710;28;90125;-69
2023/04/19 12:50:13;;;;;;;4.80;4.40;;;22.70;67.50;;;;;;6258230;28;89091;-69
2023/04/19 12:53:15;;;;;;;4.82;4.40;;;22.60;67.40;;;;;;6255480;28;89276;-69
2023/04/19 12:56:18;;;;;;;5.25;4.75;;;22.70;67.40;;;;;;6256456;28;89070;-69
2023/04/19 12:59:20;;;;;;;5.53;4.80;;;22.70;67.40;;;;;;6252975;28;89218;-69
2023/04/19 13:02:22;;;;;;;4.90;4.40;;;22.70;67.20;;;;;;6246575;28;89305;-69
2023/04/19 13:05:26;;;;;;;4.68;4.28;;;22.70;67.10;;;;;;6257893;28;89152;-69
2023/04/19 13:08:28;;;;;;;4.95;4.45;;;22.70;67.10;;;;;;6257203;28;87223;-69
2023/04/19 13:11:30;;;;;;;4.97;4.32;;;22.70;67.20;;;;;;6257085;28;89105;-69
2023/04/19 13:14:32;;;;;;;4.38;3.90;;;22.70;67.20;;;;;;6257537;28;89416;-68
2023/04/19 13:17:36;;;;;;;4.55;3.80;;;22.70;67.20;;;;;;6250336;28;90131;-68
2023/04/19 13:20:39;;;;;;;3.72;3.33;;;22.70;67.10;;;;;;6245347;28;89120;-69
2023/04/19 13:23:43;;;;;;;4.18;3.78;;;22.70;66.90;;;;;;6254720;27;89066;-68
2023/04/19 13:26:45;;;;;;;3.67;3.30;;;22.60;66.70;;;;;;6253929;28;89184;-69
2023/04/19 13:29:47;;;;;;;3.55;3.25;;;22.70;66.70;;;;;;6253261;28;89830;-69
2023/04/19 13:32:49;;;;;;;3.53;3.20;;;22.60;66.50;;;;;;6252220;28;89188;-69
2023/04/19 13:35:53;;;;;;;3.25;2.95;;;22.60;66.40;;;;;;6255707;28;89288;-69
2023/04/19 13:38:55;;;;;;;3.20;2.90;;;22.60;66.20;;;;;;6257370;28;87319;-69
2023/04/19 13:41:57;;;;;;;2.95;2.75;;;22.60;66.30;;;;;;6243762;28;89093;-69
2023/04/19 13:44:59;;;;;;;3.70;2.78;;;22.60;66.20;;;;;;6253949;28;89022;-69
2023/04/19 13:48:01;;;;;;;2.72;2.53;;;22.60;66.20;;;;;;6253814;28;89973;-69
2023/04/19 13:51:04;;;;;;;3.20;2.90;;;22.60;66.20;;;;;;6256779;28;89206;-69
2023/04/19 13:54:06;;;;;;;3.20;2.90;;;22.70;66.00;;;;;;6256282;28;88297;-69
2023/04/19 13:57:08;;;;;;;2.83;2.55;;;22.60;65.80;;;;;;6257492;28;88966;-69
2023/04/19 14:00:11;;;;;;;2.97;2.58;;;22.60;65.70;;;;;;6247722;28;89049;-69
2023/04/19 14:03:13;;;;;;;2.63;2.42;;;22.70;65.60;;;;;;6253549;28;88188;-69
2023/04/19 14:06:17;;;;;;;2.70;2.50;;;22.70;65.70;;;;;;6254281;28;88957;-69
2023/04/19 14:09:19;;;;;;;3.00;2.75;;;22.70;65.70;;;;;;6256502;28;88361;-70
2023/04/19 14:12:21;;;;;;;2.97;2.30;;;22.70;65.70;;;;;;6256292;28;89087;-70
2023/04/19 14:15:24;;;;;;;2.70;2.50;;;22.60;65.70;;;;;;6255702;28;88330;-70
2023/04/19 14:18:26;;;;;;;2.50;2.30;;;22.60;65.60;;;;;;6249465;28;90012;-70
2023/04/19 14:21:30;;;;;;;2.97;2.45;;;22.60;65.60;;;;;;6248949;28;89107;-70
2023/04/19 14:24:32;;;;;;;2.80;2.47;;;22.60;65.60;;;;;;6254762;28;90019;-70
2023/04/19 14:27:34;;;;;;;2.45;2.25;;;22.60;65.50;;;;;;6253431;28;89037;-70
2023/04/19 14:30:36;;;;;;;2.35;2.15;;;22.60;65.50;;;;;;6256583;28;89093;-69
2023/04/19 14:33:38;;;;;;;2.55;2.35;;;22.60;65.40;;;;;;6252822;28;89147;-71
2023/04/19 14:36:42;;;;;;;2.28;2.08;;;22.60;65.50;;;;;;6255112;28;89199;-70
2023/04/19 14:39:45;;;;;;;2.78;2.15;;;22.60;65.50;;;;;;6253492;28;88632;-70
2023/04/19 14:42:47;;;;;;;2.47;2.25;;;22.60;65.50;;;;;;6247784;28;89071;-70
2023/04/19 14:45:49;;;;;;;2.67;2.47;;;22.60;65.50;;;;;;6256139;28;89109;-70
2023/04/19 14:48:51;;;;;;;2.40;2.20;;;22.60;65.50;;;;;;6243902;28;90118;-70
2023/04/19 14:51:54;;;;;;;2.53;2.33;;;22.60;65.30;;;;;;6256645;28;89103;-70
2023/04/19 14:54:58;;;;;;;3.58;2.95;;;22.70;65.10;;;;;;6246771;28;89134;-70
2023/04/19 14:58:00;;;;;;;3.30;3.00;;;22.60;64.50;;;;;;6252120;28;88523;-70
2023/04/19 15:01:11;;;;;;;3.47;3.17;;;22.70;64.40;;;;;;6242082;28;89045;-70
2023/04/19 15:04:13;;;;;;;4.60;4.00;;;22.60;64.00;;;;;;6253395;27;89501;-70
2023/04/19 15:07:16;;;;;;;4.82;3.83;;;22.60;64.00;;;;;;6253996;28;89070;-69
2023/04/19 15:10:18;;;;;;;5.55;3.95;;;22.60;64.00;;;;;;6255551;28;88349;-70
2023/04/19 15:13:20;;;;;;;5.28;4.22;;;22.60;64.00;;;;;;6242029;28;89140;-70
2023/04/19 15:16:23;;;;;;;6.35;4.47;;;22.60;63.90;;;;;;6253599;28;89063;-69
2023/04/19 15:19:25;;;;;;;6.30;5.03;;;22.60;63.90;;;;;;6245433;28;89932;-70
2023/04/19 15:22:28;;;;;;;8.63;5.07;;;22.60;63.80;;;;;;6247101;28;89063;-69
2023/04/19 15:25:30;;;;;;;9.07;5.72;;;22.60;63.80;;;;;;6251239;28;89341;-69
2023/04/19 15:28:35;;;;;;;8.23;5.43;;;22.50;63.80;;;;;;6255577;28;89055;-69
2023/04/19 15:31:37;;;;;;;9.38;5.15;;;22.50;63.70;;;;;;6253179;28;89081;-69
2023/04/19 15:34:39;;;;;;;9.70;5.72;;;22.50;63.60;;;;;;6254407;28;89023;-70
2023/04/19 15:37:42;;;;;;;12.43;6.95;;;22.50;63.50;;;;;;6235621;28;89432;-69
2023/04/19 15:40:44;;;;;;;15.75;9.10;;;22.50;63.30;;;;;;6243225;28;88508;-69
2023/04/19 15:43:46;;;;;;;15.68;8.65;;;22.50;63.20;;;;;;6241041;28;87958;-69
2023/04/19 15:46:48;;;;;;;12.30;7.82;;;22.50;63.20;;;;;;6254260;28;89208;-69